createdAt,value
2024-01-24T00:00:01.795Z,4.799
2024-01-24T00:01:01.941Z,4.797
2024-01-24T00:02:01.841Z,4.819
2024-01-24T00:03:01.864Z,4.814
2024-01-24T00:04:01.950Z,4.827
2024-01-24T00:05:01.853Z,4.824
2024-01-24T00:06:01.870Z,4.822
2024-01-24T00:07:01.890Z,4.830
2024-01-24T00:08:01.868Z,4.830
2024-01-24T00:09:01.879Z,4.838
2024-01-24T00:10:01.890Z,4.864
2024-01-24T00:11:01.889Z,4.857
2024-01-24T00:12:01.923Z,4.873
2024-01-24T00:13:01.986Z,4.871
2024-01-24T00:14:01.921Z,4.871
2024-01-24T00:15:01.911Z,4.875
2024-01-24T00:16:01.934Z,4.868
2024-01-24T00:17:01.929Z,4.859
2024-01-24T00:18:02.026Z,4.878
2024-01-24T00:19:02.024Z,4.880
2024-01-24T00:20:01.964Z,4.880
2024-01-24T00:21:02.011Z,4.902
2024-01-24T00:22:01.972Z,4.899
2024-01-24T00:23:01.983Z,4.913
2024-01-24T00:24:01.981Z,4.916
2024-01-24T00:25:01.976Z,4.917
2024-01-24T00:26:01.984Z,4.913
2024-01-24T00:27:01.984Z,4.912
2024-01-24T00:28:01.990Z,4.923
2024-01-24T00:29:01.999Z,4.910
2024-01-24T00:30:02.027Z,4.919
2024-01-24T00:31:02.067Z,4.919
2024-01-24T00:32:02.033Z,4.921
2024-01-24T00:33:02.072Z,4.928
2024-01-24T00:34:02.112Z,4.958
2024-01-24T00:35:02.051Z,4.981
2024-01-24T00:36:02.065Z,4.988
2024-01-24T00:37:02.059Z,4.990
2024-01-24T00:38:02.069Z,4.995
2024-01-24T00:39:02.093Z,4.995
2024-01-24T00:40:02.105Z,4.995
2024-01-24T00:41:02.077Z,4.994
2024-01-24T00:42:02.090Z,5.012
2024-01-24T00:43:02.097Z,5.006
2024-01-24T00:44:02.106Z,5.034
2024-01-24T00:45:02.123Z,5.032
2024-01-24T00:46:02.166Z,5.036
2024-01-24T00:47:02.155Z,5.028
2024-01-24T00:48:02.338Z,5.036
2024-01-24T00:49:02.283Z,5.034
2024-01-24T00:50:02.148Z,5.038
2024-01-24T00:51:02.153Z,5.042
2024-01-24T00:52:02.156Z,5.040
2024-01-24T00:53:02.154Z,5.046
2024-01-24T00:54:02.160Z,5.054
2024-01-24T00:55:02.182Z,5.071
2024-01-24T00:56:02.180Z,5.075
2024-01-24T00:57:02.188Z,5.071
2024-01-24T00:58:02.205Z,5.069
2024-01-24T00:59:02.206Z,5.065
2024-01-24T01:00:02.215Z,5.068
2024-01-24T01:01:02.364Z,5.054
2024-01-24T01:02:02.229Z,5.082
2024-01-24T01:03:02.271Z,5.091
2024-01-24T01:04:02.327Z,5.094
2024-01-24T01:05:02.270Z,5.122
2024-01-24T01:06:02.243Z,5.116
2024-01-24T01:07:02.242Z,5.118
2024-01-24T01:08:02.256Z,5.120
2024-01-24T01:09:02.263Z,5.123
2024-01-24T01:10:02.292Z,5.127
2024-01-24T01:11:02.292Z,5.146
2024-01-24T01:12:02.301Z,5.157
2024-01-24T01:13:02.416Z,5.161
2024-01-24T01:14:02.326Z,5.163
2024-01-24T01:15:02.359Z,5.164
2024-01-24T01:16:02.332Z,5.166
2024-01-24T01:17:02.341Z,5.164
2024-01-24T01:18:02.398Z,5.171
2024-01-24T01:19:02.516Z,5.175
2024-01-24T01:20:02.338Z,5.198
2024-01-24T01:21:02.358Z,5.206
2024-01-24T01:22:02.443Z,5.207
2024-01-24T01:23:02.386Z,5.210
2024-01-24T01:24:02.427Z,5.210
2024-01-24T01:25:02.399Z,5.219
2024-01-24T01:26:02.422Z,5.230
2024-01-24T01:27:02.416Z,5.226
2024-01-24T01:28:02.434Z,5.232
2024-01-24T01:29:02.424Z,5.232
2024-01-24T01:30:02.446Z,5.232
2024-01-24T01:31:02.434Z,5.234
2024-01-24T01:32:02.448Z,5.231
2024-01-24T01:33:02.510Z,5.235
2024-01-24T01:34:02.649Z,5.238
2024-01-24T01:35:02.474Z,5.233
2024-01-24T01:37:02.619Z,5.279
2024-01-24T01:38:02.495Z,5.279
2024-01-24T01:39:02.498Z,5.275
2024-01-24T01:40:02.634Z,5.277
2024-01-24T01:41:02.513Z,5.277
2024-01-24T01:42:02.519Z,5.273
2024-01-24T01:43:02.569Z,5.282
2024-01-24T01:44:02.535Z,5.284
2024-01-24T01:45:02.545Z,5.308
2024-01-24T01:46:02.537Z,5.316
2024-01-24T01:47:02.552Z,5.337
2024-01-24T01:48:02.682Z,5.341
2024-01-24T01:49:02.735Z,5.343
2024-01-24T01:50:02.586Z,5.335
2024-01-24T01:51:02.583Z,5.343
2024-01-24T01:52:02.722Z,5.341
2024-01-24T01:53:02.615Z,5.345
2024-01-24T01:54:02.595Z,5.354
2024-01-24T01:55:02.607Z,5.339
2024-01-24T01:56:02.609Z,5.337
2024-01-24T01:57:02.616Z,5.352
2024-01-24T01:58:02.691Z,5.363
2024-01-24T01:59:02.619Z,5.385
2024-01-24T02:00:02.646Z,5.389
2024-01-24T02:01:02.731Z,5.396
2024-01-24T02:02:02.649Z,5.401
2024-01-24T02:03:02.781Z,5.391
2024-01-24T02:04:02.686Z,5.391
2024-01-24T02:05:02.702Z,5.397
2024-01-24T02:06:02.732Z,5.378
2024-01-24T02:07:02.798Z,5.397
2024-01-24T02:08:02.692Z,5.389
2024-01-24T02:09:02.694Z,5.381
2024-01-24T02:10:02.729Z,5.386
2024-01-24T02:11:02.704Z,5.398
2024-01-24T02:12:02.730Z,5.399
2024-01-24T02:13:02.803Z,5.381
2024-01-24T02:14:02.727Z,5.394
2024-01-24T02:15:02.773Z,5.398
2024-01-24T02:16:02.808Z,5.407
2024-01-24T02:17:02.780Z,5.416
2024-01-24T02:18:02.832Z,5.407
2024-01-24T02:19:02.895Z,5.407
2024-01-24T02:20:02.862Z,5.403
2024-01-24T02:21:02.794Z,5.407
2024-01-24T02:22:02.789Z,5.433
2024-01-24T02:23:02.808Z,5.433
2024-01-24T02:24:02.795Z,5.433
2024-01-24T02:25:02.823Z,5.435
2024-01-24T02:26:02.825Z,5.437
2024-01-24T02:27:02.830Z,5.434
2024-01-24T02:28:02.991Z,5.436
2024-01-24T02:29:02.844Z,5.428
2024-01-24T02:30:02.861Z,5.438
2024-01-24T02:31:02.873Z,5.453
2024-01-24T02:32:02.861Z,5.470
2024-01-24T02:33:02.959Z,5.468
2024-01-24T02:34:03.027Z,5.470
2024-01-24T02:35:02.883Z,5.479
2024-01-24T02:36:02.873Z,5.479
2024-01-24T02:37:02.900Z,5.485
2024-01-24T02:38:02.908Z,5.489
2024-01-24T02:39:02.903Z,5.486
2024-01-24T02:40:03.005Z,5.486
2024-01-24T02:41:02.919Z,5.495
2024-01-24T02:42:02.933Z,5.493
2024-01-24T02:43:03.000Z,5.489
2024-01-24T02:44:02.973Z,5.500
2024-01-24T02:45:02.954Z,5.503
2024-01-24T02:46:02.985Z,5.524
2024-01-24T02:47:02.969Z,5.526
2024-01-24T02:48:03.022Z,5.526
2024-01-24T02:49:03.017Z,5.528
2024-01-24T02:50:03.003Z,5.532
2024-01-24T02:51:02.994Z,5.536
2024-01-24T02:52:03.040Z,5.547
2024-01-24T02:53:03.007Z,5.564
2024-01-24T02:54:03.024Z,5.558
2024-01-24T02:55:03.028Z,5.592
2024-01-24T02:56:03.034Z,5.566
2024-01-24T02:57:03.029Z,5.583
2024-01-24T02:58:03.040Z,5.580
2024-01-24T02:59:03.044Z,5.580
2024-01-24T03:00:03.059Z,5.574
2024-01-24T03:01:03.177Z,5.576
2024-01-24T03:02:03.063Z,5.619
2024-01-24T03:03:03.082Z,5.623
2024-01-24T03:04:03.165Z,5.610
2024-01-24T03:05:03.228Z,5.627
2024-01-24T03:06:03.136Z,5.611
2024-01-24T03:07:03.232Z,5.627
2024-01-24T03:08:03.108Z,5.627
2024-01-24T03:09:03.117Z,5.634
2024-01-24T03:10:03.142Z,5.640
2024-01-24T03:11:03.136Z,5.621
2024-01-24T03:12:03.132Z,5.678
2024-01-24T03:13:03.157Z,5.672
2024-01-24T03:14:03.131Z,5.688
2024-01-24T03:15:03.163Z,5.693
2024-01-24T03:16:03.180Z,5.702
2024-01-24T03:17:03.177Z,5.731
2024-01-24T03:18:03.307Z,5.727
2024-01-24T03:19:03.229Z,5.733
2024-01-24T03:20:03.194Z,5.749
2024-01-24T03:21:03.205Z,5.749
2024-01-24T03:22:03.223Z,5.731
2024-01-24T03:23:05.609Z,5.749
2024-01-24T03:24:03.222Z,5.747
2024-01-24T03:25:03.276Z,5.765
2024-01-24T03:26:03.222Z,5.784
2024-01-24T03:27:03.242Z,5.768
2024-01-24T03:28:03.245Z,5.777
2024-01-24T03:29:03.258Z,5.810
2024-01-24T03:30:03.290Z,5.799
2024-01-24T03:31:03.372Z,5.818
2024-01-24T03:32:03.308Z,5.822
2024-01-24T03:33:03.321Z,5.818
2024-01-24T03:34:03.398Z,5.850
2024-01-24T03:35:03.368Z,5.855
2024-01-24T03:36:03.316Z,5.850
2024-01-24T03:37:03.330Z,5.843
2024-01-24T03:38:03.332Z,5.854
2024-01-24T03:39:03.344Z,5.867
2024-01-24T03:40:03.389Z,5.850
2024-01-24T03:41:03.359Z,5.859
2024-01-24T03:42:03.368Z,5.889
2024-01-24T03:43:03.369Z,5.884
2024-01-24T03:44:03.416Z,5.896
2024-01-24T03:45:03.385Z,5.854
2024-01-24T03:46:03.492Z,5.868
2024-01-24T03:47:03.399Z,5.868
2024-01-24T03:48:03.418Z,5.879
2024-01-24T03:49:03.472Z,5.931
2024-01-24T03:50:03.421Z,5.931
2024-01-24T03:51:03.419Z,5.937
2024-01-24T03:52:03.462Z,5.940
2024-01-24T03:53:03.405Z,5.935
2024-01-24T03:54:03.423Z,5.940
2024-01-24T03:55:03.562Z,5.935
2024-01-24T03:56:03.441Z,5.932
2024-01-24T03:57:03.446Z,5.942
2024-01-24T03:58:03.474Z,5.958
2024-01-24T03:59:03.462Z,5.969
2024-01-24T04:00:03.462Z,5.964
2024-01-24T04:01:03.525Z,5.982
2024-01-24T04:02:03.487Z,5.975
2024-01-24T04:03:03.500Z,5.977
2024-01-24T04:04:03.678Z,5.975
2024-01-24T04:05:03.563Z,5.984
2024-01-24T04:06:03.521Z,5.975
2024-01-24T04:07:03.672Z,5.984
2024-01-24T04:08:03.531Z,5.983
2024-01-24T04:09:03.542Z,5.979
2024-01-24T04:10:03.560Z,6.003
2024-01-24T04:11:03.547Z,6.018
2024-01-24T04:12:03.574Z,6.008
2024-01-24T04:13:03.558Z,5.997
2024-01-24T04:14:03.558Z,6.032
2024-01-24T04:15:03.567Z,6.045
2024-01-24T04:16:03.666Z,6.039
2024-01-24T04:17:03.584Z,6.043
2024-01-24T04:18:03.600Z,6.048
2024-01-24T04:19:03.728Z,6.030
2024-01-24T04:20:03.630Z,6.038
2024-01-24T04:21:03.624Z,6.039
2024-01-24T04:22:03.685Z,6.053
2024-01-24T04:23:03.634Z,6.038
2024-01-24T04:24:03.643Z,6.048
2024-01-24T04:25:03.679Z,6.056
2024-01-24T04:26:03.645Z,6.062
2024-01-24T04:27:03.656Z,6.055
2024-01-24T04:28:03.744Z,6.064
2024-01-24T04:29:03.659Z,6.069
2024-01-24T04:30:03.675Z,6.055
2024-01-24T04:31:03.724Z,6.064
2024-01-24T04:32:03.696Z,6.080
2024-01-24T04:33:03.942Z,6.062
2024-01-24T04:34:03.844Z,6.064
2024-01-24T04:35:03.807Z,6.067
2024-01-24T04:36:03.753Z,6.064
2024-01-24T04:37:03.732Z,6.062
2024-01-24T04:38:03.745Z,6.067
2024-01-24T04:39:03.744Z,6.112
2024-01-24T04:40:03.834Z,6.106
2024-01-24T04:41:03.776Z,6.097
2024-01-24T04:42:11.673Z,6.098
2024-01-24T04:43:03.782Z,6.123
2024-01-24T04:44:03.820Z,6.127
2024-01-24T04:45:03.799Z,6.142
2024-01-24T04:46:03.908Z,6.125
2024-01-24T04:47:03.811Z,6.130
2024-01-24T04:48:03.934Z,6.125
2024-01-24T04:49:03.996Z,6.128
2024-01-24T04:50:03.991Z,6.132
2024-01-24T04:51:03.845Z,6.128
2024-01-24T04:52:03.910Z,6.129
2024-01-24T04:53:03.857Z,6.143
2024-01-24T04:54:03.861Z,6.145
2024-01-24T04:55:03.958Z,6.140
2024-01-24T04:56:03.903Z,6.140
2024-01-24T04:57:03.888Z,6.139
2024-01-24T04:58:03.990Z,6.150
2024-01-24T04:59:03.903Z,6.150
2024-01-24T05:00:03.950Z,6.150
2024-01-24T05:01:04.000Z,6.147
2024-01-24T05:02:03.920Z,6.163
2024-01-24T05:03:03.967Z,6.158
2024-01-24T05:04:04.039Z,6.168
2024-01-24T05:05:03.942Z,6.177
2024-01-24T05:06:09.925Z,6.179
2024-01-24T05:07:04.010Z,6.179
2024-01-24T05:08:03.942Z,6.168
2024-01-24T05:09:03.969Z,6.179
2024-01-24T05:10:04.031Z,6.184
2024-01-24T05:11:03.969Z,6.180
2024-01-24T05:12:04.017Z,6.180
2024-01-24T05:13:04.023Z,6.180
2024-01-24T05:14:04.016Z,6.185
2024-01-24T05:15:04.006Z,6.199
2024-01-24T05:16:04.002Z,6.194
2024-01-24T05:17:04.010Z,6.191
2024-01-24T05:18:04.095Z,6.209
2024-01-24T05:19:04.078Z,6.235
2024-01-24T05:20:04.042Z,6.240
2024-01-24T05:21:04.036Z,6.248
2024-01-24T05:22:04.089Z,6.266
2024-01-24T05:23:04.070Z,6.270
2024-01-24T05:24:04.062Z,6.267
2024-01-24T05:25:04.139Z,6.267
2024-01-24T05:26:04.065Z,6.286
2024-01-24T05:27:04.085Z,6.276
2024-01-24T05:28:04.114Z,6.291
2024-01-24T05:29:04.088Z,6.287
2024-01-24T05:30:12.410Z,6.282
2024-01-24T05:31:04.153Z,6.299
2024-01-24T05:32:04.095Z,6.312
2024-01-24T05:33:04.166Z,6.324
2024-01-24T05:34:04.310Z,6.327
2024-01-24T05:35:04.177Z,6.332
2024-01-24T05:36:04.139Z,6.332
2024-01-24T05:37:04.196Z,6.332
2024-01-24T05:38:04.144Z,6.332
2024-01-24T05:39:04.158Z,6.332
2024-01-24T05:40:04.260Z,6.332
2024-01-24T05:41:04.162Z,6.332
2024-01-24T05:42:04.192Z,6.332
2024-01-24T05:43:04.361Z,6.341
2024-01-24T05:44:04.322Z,6.341
2024-01-24T05:45:04.187Z,6.359
2024-01-24T05:46:04.253Z,6.359
2024-01-24T05:47:04.203Z,6.359
2024-01-24T05:48:04.292Z,6.359
2024-01-24T05:49:04.431Z,6.359
2024-01-24T05:50:04.234Z,6.350
2024-01-24T05:51:04.248Z,6.385
2024-01-24T05:52:04.305Z,6.385
2024-01-24T05:53:04.251Z,6.368
2024-01-24T05:54:04.246Z,6.359
2024-01-24T05:55:04.286Z,6.376
2024-01-24T05:56:04.280Z,6.376
2024-01-24T05:57:04.268Z,6.376
2024-01-24T05:58:04.330Z,6.388
2024-01-24T05:59:04.289Z,6.424
2024-01-24T06:00:04.336Z,6.433
2024-01-24T06:01:04.374Z,6.433
2024-01-24T06:02:04.345Z,6.433
2024-01-24T06:03:04.301Z,6.415
2024-01-24T06:04:04.474Z,6.424
2024-01-24T06:05:04.396Z,6.424
2024-01-24T06:06:04.415Z,6.424
2024-01-24T06:07:04.462Z,6.424
2024-01-24T06:08:04.345Z,6.424
2024-01-24T06:09:04.336Z,6.441
2024-01-24T06:10:04.408Z,6.451
2024-01-24T06:11:04.345Z,6.441
2024-01-24T06:12:04.351Z,6.451
2024-01-24T06:13:04.380Z,8.419
2024-01-24T06:14:04.373Z,8.413
2024-01-24T06:15:04.384Z,8.419
2024-01-24T06:16:04.379Z,8.426
2024-01-24T06:17:04.403Z,8.437
2024-01-24T06:18:04.409Z,8.450
2024-01-24T06:19:04.466Z,8.492
2024-01-24T06:20:04.407Z,8.534
2024-01-24T06:21:04.418Z,6.647
2024-01-24T06:22:04.415Z,6.660
2024-01-24T06:23:04.426Z,6.666
2024-01-24T06:24:04.452Z,6.671
2024-01-24T06:25:07.456Z,6.661
2024-01-24T06:26:04.455Z,6.630
2024-01-24T06:27:04.456Z,6.661
2024-01-24T06:28:04.453Z,6.663
2024-01-24T06:29:04.474Z,6.684
2024-01-24T06:30:18.405Z,6.665
2024-01-24T06:31:04.511Z,6.679
2024-01-24T06:32:04.490Z,6.671
2024-01-24T06:33:04.622Z,6.687
2024-01-24T06:34:04.583Z,6.657
2024-01-24T06:35:04.532Z,6.665
2024-01-24T06:36:04.530Z,6.674
2024-01-24T06:37:04.533Z,6.664
2024-01-24T06:38:04.583Z,6.675
2024-01-24T06:39:04.555Z,6.682
2024-01-24T06:40:04.557Z,6.676
2024-01-24T06:41:04.560Z,6.680
2024-01-24T06:42:04.555Z,6.692
2024-01-24T06:43:04.677Z,6.681
2024-01-24T06:44:04.596Z,6.706
2024-01-24T06:45:04.597Z,6.699
2024-01-24T06:46:04.602Z,6.750
2024-01-24T06:47:04.607Z,6.767
2024-01-24T06:48:04.692Z,6.749
2024-01-24T06:49:04.700Z,6.743
2024-01-24T06:50:04.632Z,6.782
2024-01-24T06:51:04.642Z,6.772
2024-01-24T06:52:04.657Z,6.761
2024-01-24T06:53:04.654Z,6.779
2024-01-24T06:54:04.658Z,6.750
2024-01-24T06:55:04.658Z,6.764
2024-01-24T06:56:04.676Z,6.777
2024-01-24T06:57:04.718Z,6.799
2024-01-24T06:58:06.983Z,6.783
2024-01-24T06:59:04.717Z,6.773
2024-01-24T07:00:04.714Z,6.785
2024-01-24T07:01:04.849Z,6.786
2024-01-24T07:02:04.726Z,6.790
2024-01-24T07:03:04.738Z,6.798
2024-01-24T07:04:04.822Z,6.786
2024-01-24T07:05:04.961Z,6.784
2024-01-24T07:06:04.779Z,6.815
2024-01-24T07:07:04.808Z,6.787
2024-01-24T07:08:04.780Z,6.817
2024-01-24T07:09:04.784Z,6.830
2024-01-24T07:10:04.810Z,6.823
2024-01-24T07:11:04.814Z,6.813
2024-01-24T07:12:04.809Z,6.803
2024-01-24T07:13:04.870Z,6.799
2024-01-24T07:14:04.829Z,6.775
2024-01-24T07:15:04.851Z,6.781
2024-01-24T07:16:04.958Z,6.781
2024-01-24T07:17:04.854Z,6.763
2024-01-24T07:18:04.905Z,6.762
2024-01-24T07:19:04.930Z,6.751
2024-01-24T07:20:04.900Z,6.773
2024-01-24T07:21:04.857Z,6.759
2024-01-24T07:22:05.262Z,6.769
2024-01-24T07:23:04.886Z,6.768
2024-01-24T07:24:04.890Z,6.762
2024-01-24T07:25:04.988Z,6.742
2024-01-24T07:26:04.907Z,6.752
2024-01-24T07:27:04.918Z,6.749
2024-01-24T07:28:04.969Z,6.736
2024-01-24T07:29:04.928Z,6.780
2024-01-24T07:30:04.924Z,6.765
2024-01-24T07:31:04.980Z,6.765
2024-01-24T07:32:04.941Z,6.744
2024-01-24T07:33:04.991Z,6.746
2024-01-24T07:34:05.031Z,6.750
2024-01-24T07:35:05.101Z,6.742
2024-01-24T07:36:04.968Z,6.740
2024-01-24T07:37:05.018Z,6.738
2024-01-24T07:38:04.989Z,6.735
2024-01-24T07:39:04.995Z,6.753
2024-01-24T07:40:05.135Z,6.742
2024-01-24T07:41:05.003Z,6.753
2024-01-24T07:42:05.043Z,6.747
2024-01-24T07:43:05.107Z,6.742
2024-01-24T07:44:05.042Z,6.746
2024-01-24T07:45:05.032Z,6.738
2024-01-24T07:46:05.926Z,6.744
2024-01-24T07:47:05.047Z,6.752
2024-01-24T07:48:05.094Z,6.736
2024-01-24T07:49:05.158Z,6.734
2024-01-24T07:50:05.249Z,6.744
2024-01-24T07:51:05.066Z,6.754
2024-01-24T07:52:05.154Z,6.743
2024-01-24T07:53:05.084Z,6.753
2024-01-24T07:54:05.106Z,6.757
2024-01-24T07:55:05.129Z,6.764
2024-01-24T07:56:11.531Z,6.759
2024-01-24T07:57:05.125Z,6.771
2024-01-24T07:58:05.177Z,6.768
2024-01-24T07:59:05.132Z,6.795
2024-01-24T08:00:05.126Z,6.772
2024-01-24T08:01:05.203Z,6.774
2024-01-24T08:02:05.184Z,6.782
2024-01-24T08:03:05.171Z,6.772
2024-01-24T08:04:05.316Z,6.765
2024-01-24T08:05:05.336Z,6.803
2024-01-24T08:06:05.177Z,6.767
2024-01-24T08:07:05.210Z,6.840
2024-01-24T08:08:05.220Z,6.825
2024-01-24T08:09:05.170Z,6.838
2024-01-24T08:10:05.223Z,6.826
2024-01-24T08:11:05.207Z,6.834
2024-01-24T08:12:05.228Z,6.824
2024-01-24T08:13:05.266Z,6.785
2024-01-24T08:14:05.217Z,6.799
2024-01-24T08:15:05.230Z,6.817
2024-01-24T08:16:05.260Z,6.826
2024-01-24T08:17:05.326Z,6.827
2024-01-24T08:18:05.255Z,6.824
2024-01-24T08:19:05.351Z,6.831
2024-01-24T08:20:05.306Z,6.812
2024-01-24T08:21:07.767Z,6.827
2024-01-24T08:22:05.370Z,6.838
2024-01-24T08:23:05.262Z,6.822
2024-01-24T08:24:05.274Z,6.817
2024-01-24T08:25:05.337Z,6.843
2024-01-24T08:26:05.298Z,6.844
2024-01-24T08:27:05.327Z,6.844
2024-01-24T08:28:05.370Z,6.828
2024-01-24T08:29:05.313Z,6.841
2024-01-24T08:30:05.324Z,6.843
2024-01-24T08:31:05.392Z,6.858
2024-01-24T08:32:05.400Z,6.849
2024-01-24T08:33:05.383Z,6.874
2024-01-24T08:34:05.460Z,6.887
2024-01-24T08:35:05.498Z,6.870
2024-01-24T08:36:05.376Z,6.884
2024-01-24T08:37:05.515Z,6.865
2024-01-24T08:38:05.366Z,6.837
2024-01-24T08:39:05.376Z,6.863
2024-01-24T08:40:05.379Z,6.858
2024-01-24T08:41:05.487Z,6.839
2024-01-24T08:42:05.402Z,6.876
2024-01-24T08:43:05.450Z,6.889
2024-01-24T08:44:05.396Z,6.875
2024-01-24T08:45:05.399Z,6.878
2024-01-24T08:46:05.457Z,6.860
2024-01-24T08:47:05.412Z,6.871
2024-01-24T08:48:05.463Z,6.880
2024-01-24T08:49:05.482Z,6.880
2024-01-24T08:50:05.603Z,6.856
2024-01-24T08:51:05.447Z,6.845
2024-01-24T08:52:05.501Z,6.856
2024-01-24T08:53:05.458Z,6.860
2024-01-24T08:54:05.481Z,6.860
2024-01-24T08:55:05.644Z,6.841
2024-01-24T08:56:05.484Z,6.843
2024-01-24T08:57:05.488Z,6.821
2024-01-24T08:58:05.547Z,6.810
2024-01-24T08:59:05.493Z,6.799
2024-01-24T09:00:05.549Z,6.791
2024-01-24T09:01:05.597Z,6.784
2024-01-24T09:02:05.569Z,6.801
2024-01-24T09:03:05.555Z,6.788
2024-01-24T09:04:05.646Z,6.794
2024-01-24T09:05:05.607Z,6.804
2024-01-24T09:06:05.682Z,6.783
2024-01-24T09:07:05.601Z,6.766
2024-01-24T09:08:05.557Z,6.783
2024-01-24T09:09:05.605Z,6.742
2024-01-24T09:10:05.663Z,6.737
2024-01-24T09:11:05.596Z,6.746
2024-01-24T09:12:05.584Z,6.758
2024-01-24T09:13:05.692Z,6.742
2024-01-24T09:14:05.656Z,6.737
2024-01-24T09:15:05.632Z,6.737
2024-01-24T09:16:05.772Z,6.742
2024-01-24T09:17:05.613Z,6.755
2024-01-24T09:18:05.725Z,6.736
2024-01-24T09:19:05.755Z,6.750
2024-01-24T09:20:05.876Z,6.747
2024-01-24T09:21:05.630Z,6.735
2024-01-24T09:22:05.696Z,6.743
2024-01-24T09:23:05.648Z,6.739
2024-01-24T09:24:05.668Z,6.751
2024-01-24T09:25:08.077Z,6.737
2024-01-24T09:26:05.682Z,6.725
2024-01-24T09:27:05.685Z,6.732
2024-01-24T09:28:05.788Z,6.738
2024-01-24T09:29:05.716Z,6.742
2024-01-24T09:30:05.710Z,6.753
2024-01-24T09:31:05.755Z,6.756
2024-01-24T09:32:05.725Z,6.721
2024-01-24T09:33:05.853Z,6.689
2024-01-24T09:34:06.000Z,6.677
2024-01-24T09:35:06.028Z,6.682
2024-01-24T09:36:05.742Z,6.660
2024-01-24T09:37:05.800Z,6.648
2024-01-24T09:38:05.768Z,6.667
2024-01-24T09:39:05.776Z,6.669
2024-01-24T09:40:05.887Z,6.669
2024-01-24T09:41:05.808Z,6.703
2024-01-24T09:42:05.813Z,6.724
2024-01-24T09:43:05.835Z,6.749
2024-01-24T09:44:05.810Z,6.797
2024-01-24T09:45:07.839Z,6.812
2024-01-24T09:46:05.851Z,6.814
2024-01-24T09:47:05.841Z,6.793
2024-01-24T09:48:05.848Z,6.767
2024-01-24T09:49:05.947Z,6.738
2024-01-24T09:50:05.848Z,6.687
2024-01-24T09:51:05.866Z,6.685
2024-01-24T09:52:05.910Z,6.666
2024-01-24T09:53:05.878Z,6.658
2024-01-24T09:54:05.879Z,6.669
2024-01-24T09:55:06.465Z,6.693
2024-01-24T09:56:05.910Z,6.711
2024-01-24T09:57:05.969Z,6.716
2024-01-24T09:58:07.441Z,6.731
2024-01-24T09:59:05.897Z,6.731
2024-01-24T10:00:05.899Z,6.731
2024-01-24T10:01:06.064Z,6.686
2024-01-24T10:02:05.994Z,6.684
2024-01-24T10:03:05.984Z,6.677
2024-01-24T10:04:06.021Z,6.703
2024-01-24T10:05:05.988Z,6.686
2024-01-24T10:06:06.006Z,6.678
2024-01-24T10:07:06.050Z,6.663
2024-01-24T10:08:05.976Z,6.645
2024-01-24T10:09:08.380Z,6.633
2024-01-24T10:10:06.003Z,6.640
2024-01-24T10:11:05.998Z,6.627
2024-01-24T10:12:06.003Z,6.586
2024-01-24T10:13:06.172Z,6.579
2024-01-24T10:14:06.033Z,6.580
2024-01-24T10:15:06.041Z,6.538
2024-01-24T10:16:09.550Z,6.526
2024-01-24T10:17:06.053Z,6.565
2024-01-24T10:18:06.272Z,6.574
2024-01-24T10:19:06.208Z,6.567
2024-01-24T10:20:06.136Z,6.565
2024-01-24T10:21:06.128Z,6.562
2024-01-24T10:22:09.370Z,6.572
2024-01-24T10:23:06.079Z,6.562
2024-01-24T10:24:06.079Z,6.598
2024-01-24T10:25:06.213Z,6.545
2024-01-24T10:26:06.115Z,6.549
2024-01-24T10:27:06.096Z,6.534
2024-01-24T10:28:06.148Z,6.561
2024-01-24T10:29:06.155Z,6.549
2024-01-24T10:30:06.137Z,6.549
2024-01-24T10:31:06.288Z,6.516
2024-01-24T10:32:06.150Z,6.540
2024-01-24T10:33:06.208Z,6.516
2024-01-24T10:34:06.292Z,6.545
2024-01-24T10:35:06.403Z,6.590
2024-01-24T10:36:14.258Z,6.600
2024-01-24T10:37:06.246Z,6.587
2024-01-24T10:38:06.211Z,6.601
2024-01-24T10:39:06.211Z,6.622
2024-01-24T10:40:06.209Z,6.602
2024-01-24T10:41:06.209Z,6.584
2024-01-24T10:42:09.734Z,6.551
2024-01-24T10:43:06.323Z,6.573
2024-01-24T10:44:06.369Z,6.565
2024-01-24T10:45:06.245Z,6.543
2024-01-24T10:46:06.351Z,6.544
2024-01-24T10:47:06.263Z,6.565
2024-01-24T10:48:06.348Z,6.547
2024-01-24T10:49:06.397Z,6.541
2024-01-24T10:50:06.390Z,6.528
2024-01-24T10:51:06.278Z,6.527
2024-01-24T10:52:06.345Z,6.560
2024-01-24T10:53:06.305Z,6.621
2024-01-24T10:54:06.325Z,6.608
2024-01-24T10:55:06.444Z,6.661
2024-01-24T10:56:06.319Z,6.724
2024-01-24T10:57:06.329Z,6.728
2024-01-24T10:58:07.711Z,6.747
2024-01-24T10:59:06.367Z,6.763
2024-01-24T11:00:06.423Z,6.764
2024-01-24T11:01:06.457Z,6.753
2024-01-24T11:02:06.395Z,6.751
2024-01-24T11:03:06.436Z,6.741
2024-01-24T11:04:08.826Z,6.716
2024-01-24T11:05:06.454Z,6.685
2024-01-24T11:06:06.407Z,6.694
2024-01-24T11:07:06.451Z,6.692
2024-01-24T11:08:06.404Z,6.670
2024-01-24T11:09:06.408Z,6.650
2024-01-24T11:10:08.410Z,6.680
2024-01-24T11:11:06.446Z,6.698
2024-01-24T11:12:06.432Z,6.681
2024-01-24T11:13:06.527Z,6.679
2024-01-24T11:14:06.461Z,6.686
2024-01-24T11:15:06.473Z,6.681
2024-01-24T11:16:08.421Z,6.674
2024-01-24T11:17:06.505Z,6.692
2024-01-24T11:18:06.514Z,6.673
2024-01-24T11:19:06.522Z,6.681
2024-01-24T11:20:06.523Z,6.684
2024-01-24T11:21:06.515Z,6.653
2024-01-24T11:22:13.292Z,6.684
2024-01-24T11:23:06.510Z,6.690
2024-01-24T11:24:06.527Z,6.684
2024-01-24T11:25:06.596Z,6.675
2024-01-24T11:26:06.519Z,6.635
2024-01-24T11:27:06.529Z,6.618
2024-01-24T11:28:06.629Z,6.621
2024-01-24T11:29:06.545Z,6.638
2024-01-24T11:30:06.561Z,6.578
2024-01-24T11:31:06.623Z,6.594
2024-01-24T11:32:10.407Z,6.569
2024-01-24T11:33:06.672Z,6.569
2024-01-24T11:34:06.691Z,6.554
2024-01-24T11:35:06.660Z,6.571
2024-01-24T11:36:06.611Z,6.534
2024-01-24T11:37:06.699Z,6.507
2024-01-24T11:38:13.247Z,6.495
2024-01-24T11:39:06.643Z,6.502
2024-01-24T11:40:06.683Z,6.497
2024-01-24T11:41:06.649Z,6.510
2024-01-24T11:42:06.663Z,6.500
2024-01-24T11:43:06.907Z,6.459
2024-01-24T11:44:06.676Z,6.464
2024-01-24T11:45:06.679Z,6.468
2024-01-24T11:46:06.824Z,6.455
2024-01-24T11:47:06.698Z,6.477
2024-01-24T11:48:06.876Z,6.485
2024-01-24T11:49:06.822Z,6.436
2024-01-24T11:50:06.761Z,6.424
2024-01-24T11:51:06.742Z,6.432
2024-01-24T11:52:06.770Z,6.408
2024-01-24T11:53:06.758Z,6.422
2024-01-24T11:54:06.765Z,6.400
2024-01-24T11:55:06.836Z,6.393
2024-01-24T11:56:06.844Z,6.400
2024-01-24T11:57:06.812Z,6.415
2024-01-24T11:58:06.902Z,6.382
2024-01-24T11:59:06.780Z,6.426
2024-01-24T12:00:06.782Z,6.429
2024-01-24T12:01:07.251Z,6.423
2024-01-24T12:02:06.805Z,6.403
2024-01-24T12:03:06.837Z,6.438
2024-01-24T12:04:06.890Z,6.446
2024-01-24T12:05:06.903Z,6.458
2024-01-24T12:06:06.893Z,6.450
2024-01-24T12:07:06.906Z,6.460
2024-01-24T12:08:06.836Z,6.402
2024-01-24T12:09:06.843Z,6.388
2024-01-24T12:10:06.917Z,6.402
2024-01-24T12:11:06.880Z,6.431
2024-01-24T12:12:06.906Z,6.395
2024-01-24T12:13:06.908Z,6.385
2024-01-24T12:14:06.916Z,6.384
2024-01-24T12:15:06.904Z,6.351
2024-01-24T12:16:07.008Z,6.334
2024-01-24T12:17:06.961Z,6.372
2024-01-24T12:18:07.135Z,6.393
2024-01-24T12:19:07.049Z,6.376
2024-01-24T12:20:07.069Z,6.377
2024-01-24T12:21:06.942Z,6.306
2024-01-24T12:22:06.995Z,6.303
2024-01-24T12:23:06.951Z,6.298
2024-01-24T12:24:06.979Z,6.298
2024-01-24T12:25:07.085Z,6.298
2024-01-24T12:26:07.133Z,6.288
2024-01-24T12:27:07.004Z,6.291
2024-01-24T12:28:07.094Z,6.248
2024-01-24T12:29:07.040Z,6.253
2024-01-24T12:30:07.580Z,6.253
2024-01-24T12:31:07.538Z,6.246
2024-01-24T12:32:07.336Z,6.251
2024-01-24T12:33:07.060Z,6.226
2024-01-24T12:34:07.113Z,6.226
2024-01-24T12:35:07.158Z,6.228
2024-01-24T12:36:07.119Z,6.238
2024-01-24T12:37:07.106Z,6.247
2024-01-24T12:38:07.082Z,6.254
2024-01-24T12:39:07.115Z,6.244
2024-01-24T12:40:07.156Z,6.256
2024-01-24T12:41:07.098Z,6.235
2024-01-24T12:42:07.115Z,6.240
2024-01-24T12:43:07.149Z,6.252
2024-01-24T12:44:07.125Z,6.214
2024-01-24T12:45:07.160Z,6.212
2024-01-24T12:46:07.295Z,6.184
2024-01-24T12:47:07.136Z,6.169
2024-01-24T12:48:07.274Z,6.186
2024-01-24T12:49:07.332Z,6.176
2024-01-24T12:50:07.416Z,6.185
2024-01-24T12:51:07.303Z,6.167
2024-01-24T12:52:07.215Z,6.168
2024-01-24T12:53:07.191Z,6.157